La Porte, IN

2:23 AM CDT on April 30, 2017 (GMT -0500)
La Porte Municipal

Weather History for KPPO - November, 2013

Change the Weather History Date:

Friday, November 8, 2013

  Actual Average (KSBN) Record (KSBN)
Temperature  
Mean Temperature 36 °F -  
Max Temperature 45 °F 51 °F 72 °F (1931)
Min Temperature 27 °F 35 °F 15 °F (1991)
Degree Days  
Heating Degree Days 29    
Moisture  
Dew Point 30 °F    
Average Humidity 73    
Maximum Humidity 96    
Minimum Humidity 52    
Precipitation  
Precipitation 0.00 in - - ()
Sea Level Pressure  
Sea Level Pressure 30.22 in    
Wind  
Wind Speed 7 mph (SW)    
Max Wind Speed 13 mph    
Max Gust Speed 17 mph    
Visibility 9 miles    
Events      
Averages and records for this station are not official NWS values.
T = Trace of Precipitation, MM = Missing Value Source: NWS Daily Summary

Daily Weather History Graph

Daily Weather History Graph

Search for Another Location

Airport or City:

Trip Planner

Search our weather history database for the weather conditions in past years. The results will help you decide how hot, cold, wet, or windy it might be!

Date:

Astronomy

Nov. 08, 2013 Rise Set
Actual Time 6:27 AM CST 4:33 PM CST
Civil Twilight 5:58 AM CST 5:02 PM CST
Nautical Twilight 5:25 AM CST 5:35 PM CST
Astronomical Twilight 4:52 AM CST 6:08 PM CST
Moon 11:22 AM CST (11/8) 9:53 PM CST (11/8)
Length of Visible Light 11h 04m
Length of Day
10h 05m
Waxing Crescent, 33% of the Moon is Illuminated
Nov 8
Waxing Crescent
Nov 9
First Quarter
Nov 17
Full
Nov 25
Last Quarter
Dec 2
New

Hourly Weather History & Observations

Time (CST) Temp. Windchill Dew Point Humidity Pressure Visibility Wind Dir Wind Speed Gust Speed Precip Events Conditions
12:15 AM 31.8 °F 24.6 °F 29.3 °F 90% 30.21 in 10.0 mi West 8.1 mph - N/A   Scattered Clouds
12:35 AM 31.6 °F 24.4 °F 29.1 °F 90% 30.22 in 10.0 mi West 8.1 mph - N/A   Mostly Cloudy
12:55 AM 31.6 °F 25.1 °F 29.1 °F 90% 30.22 in 10.0 mi West 6.9 mph - N/A   Mostly Cloudy
1:15 AM 31.5 °F 24.9 °F 29.1 °F 91% 30.22 in 10.0 mi WSW 6.9 mph - N/A   Mostly Cloudy
1:35 AM 31.1 °F 25.4 °F 29.3 °F 93% 30.22 in 10.0 mi West 5.8 mph - N/A   Mostly Cloudy
1:55 AM 30.6 °F 23.8 °F 28.8 °F 93% 30.23 in 7.0 mi WSW 6.9 mph - N/A   Scattered Clouds
2:15 AM 30.7 °F 24.9 °F 29.3 °F 94% 30.23 in 7.0 mi West 5.8 mph - N/A   Scattered Clouds
2:35 AM 30.9 °F 26.2 °F 29.3 °F 94% 30.23 in 7.0 mi West 4.6 mph - N/A   Mostly Cloudy
2:55 AM 29.8 °F 23.9 °F 28.4 °F 94% 30.23 in 7.0 mi WSW 5.8 mph - N/A   Scattered Clouds
3:15 AM 30.0 °F 24.1 °F 29.1 °F 96% 30.24 in 7.0 mi WSW 5.8 mph - N/A   Mostly Cloudy
3:35 AM 31.5 °F 25.8 °F 30.6 °F 96% 30.24 in 7.0 mi West 5.8 mph - N/A   Mostly Cloudy
3:55 AM 32.0 °F 26.4 °F 30.9 °F 96% 30.24 in 7.0 mi WSW 5.8 mph - N/A   Overcast
4:15 AM 32.0 °F 25.6 °F 30.9 °F 96% 30.25 in 7.0 mi WSW 6.9 mph - N/A   Overcast
4:35 AM 32.2 °F 25.8 °F 30.7 °F 94% 30.25 in 10.0 mi West 6.9 mph - N/A   Overcast
4:55 AM 32.0 °F 25.6 °F 30.2 °F 93% 30.27 in 10.0 mi West 6.9 mph - N/A   Mostly Cloudy
5:15 AM 32.0 °F 26.4 °F 29.5 °F 90% 30.27 in 10.0 mi West 5.8 mph - N/A   Mostly Cloudy
5:35 AM 30.9 °F 25.2 °F 28.8 °F 92% 30.28 in 10.0 mi West 5.8 mph - N/A   Scattered Clouds
5:55 AM 30.0 °F 25.2 °F 28.0 °F 92% 30.28 in 10.0 mi West 4.6 mph - N/A   Scattered Clouds
6:15 AM 28.2 °F - 26.2 °F 92% 30.28 in 7.0 mi Calm Calm - N/A   Clear
6:35 AM 27.5 °F 23.6 °F 26.2 °F 95% 30.30 in 5.0 mi West 3.5 mph - N/A   Clear
6:55 AM 28.0 °F 21.7 °F 27.1 °F 96% 30.30 in 5.0 mi WSW 5.8 mph - N/A   Clear
7:15 AM 30.2 °F 23.4 °F 29.1 °F 96% 30.31 in 7.0 mi West 6.9 mph - N/A   Clear
7:35 AM 31.6 °F 25.1 °F 29.5 °F 92% 30.32 in 7.0 mi WSW 6.9 mph - N/A   Clear
7:55 AM 32.4 °F - 29.8 °F 90% 30.32 in 7.0 mi Calm Calm - N/A   Clear
8:15 AM 33.6 °F - 30.0 °F 87% 30.32 in 10.0 mi Calm Calm - N/A   Clear
8:35 AM 35.6 °F 32.8 °F 30.4 °F 81% 30.33 in 10.0 mi West 3.5 mph - N/A   Clear
8:55 AM 36.5 °F 31.0 °F 30.9 °F 80% 30.33 in 10.0 mi SW 6.9 mph - N/A   Clear
9:15 AM 37.4 °F 33.8 °F 30.6 °F 76% 30.33 in 10.0 mi SSW 4.6 mph - N/A   Clear
9:35 AM 38.3 °F 32.5 °F 31.5 °F 76% 30.33 in 10.0 mi SW 8.1 mph - N/A   Clear
9:55 AM 39.0 °F 34.8 °F 30.4 °F 71% 30.33 in 10.0 mi SW 5.8 mph - N/A   Clear
10:15 AM 39.9 °F 34.5 °F 29.8 °F 67% 30.33 in 10.0 mi SW 8.1 mph - N/A   Clear
10:35 AM 41.0 °F 39.0 °F 28.8 °F 62% 30.32 in 10.0 mi NW 3.5 mph - N/A   Clear
10:55 AM 41.5 °F 39.6 °F 29.1 °F 61% 30.31 in 10.0 mi SW 3.5 mph - N/A   Clear
11:15 AM 42.3 °F 36.8 °F 29.8 °F 61% 30.30 in 10.0 mi SSW 9.2 mph - N/A   Clear
11:35 AM 42.3 °F 37.9 °F 30.0 °F 62% 30.30 in 10.0 mi SW 6.9 mph - N/A   Clear
11:55 AM 42.3 °F 37.3 °F 28.8 °F 59% 30.29 in 10.0 mi SSW 8.1 mph - N/A   Clear
12:15 PM 43.7 °F 40.3 °F 27.7 °F 53% 30.28 in 10.0 mi SSW 5.8 mph - N/A   Clear
12:35 PM 43.2 °F 41.5 °F 27.3 °F 54% 30.26 in 10.0 mi SW 3.5 mph - N/A   Clear
12:55 PM 44.1 °F 39.5 °F 27.5 °F 52% 30.26 in 10.0 mi WSW 8.1 mph - N/A   Clear
1:15 PM 44.4 °F 40.5 °F 28.0 °F 53% 30.25 in 10.0 mi South 6.9 mph - N/A   Clear
1:35 PM 45.0 °F 41.2 °F 29.1 °F 54% 30.24 in 10.0 mi SW 6.9 mph - N/A   Clear
1:55 PM 45.0 °F 39.7 °F 28.8 °F 53% 30.24 in 10.0 mi SSW 10.4 mph - N/A   Clear
2:15 PM 45.0 °F 40.1 °F 29.1 °F 54% 30.23 in 10.0 mi SSW 9.2 mph - N/A   Clear
2:35 PM 45.5 °F 40.8 °F 29.7 °F 54% 30.22 in 10.0 mi SW 9.2 mph - N/A   Clear
2:55 PM 45.7 °F 41.5 °F 30.4 °F 55% 30.21 in 10.0 mi SSW 8.1 mph - N/A   Clear
3:15 PM 44.2 °F 39.2 °F 29.5 °F 56% 30.22 in 10.0 mi SW 9.2 mph - N/A   Clear
3:35 PM 43.9 °F 41.3 °F 30.7 °F 60% 30.21 in 10.0 mi South 4.6 mph - N/A   Clear
3:55 PM 43.2 °F 40.5 °F 30.6 °F 61% 30.21 in 10.0 mi South 4.6 mph - N/A   Clear
4:15 PM 43.3 °F 39.9 °F 30.7 °F 61% 30.21 in 10.0 mi SSW 5.8 mph - N/A   Clear
4:35 PM 43.0 °F 39.5 °F 31.1 °F 63% 30.20 in 10.0 mi South 5.8 mph - N/A   Scattered Clouds
4:55 PM 42.8 °F 39.3 °F 30.9 °F 63% 30.19 in 10.0 mi SSE 5.8 mph - N/A   Scattered Clouds
5:15 PM 42.1 °F 38.4 °F 31.8 °F 67% 30.17 in 10.0 mi SSE 5.8 mph - N/A   Scattered Clouds
5:35 PM 42.4 °F 39.6 °F 31.5 °F 65% 30.18 in 10.0 mi SSE 4.6 mph - N/A   Mostly Cloudy
5:55 PM 42.3 °F 37.3 °F 31.8 °F 67% 30.18 in 10.0 mi SSE 8.1 mph - N/A   Scattered Clouds
6:15 PM 41.9 °F 38.2 °F 31.8 °F 67% 30.17 in 10.0 mi SSE 5.8 mph - N/A   Clear
6:35 PM 41.9 °F 37.5 °F 31.5 °F 66% 30.15 in 10.0 mi SSE 6.9 mph - N/A   Clear
6:55 PM 42.1 °F 37.7 °F 30.9 °F 65% 30.15 in 10.0 mi SSE 6.9 mph - N/A   Clear
7:15 PM 41.5 °F 36.4 °F 30.9 °F 66% 30.14 in 10.0 mi South 8.1 mph - N/A   Clear
7:35 PM 40.8 °F 36.2 °F 31.1 °F 68% 30.14 in 10.0 mi SSE 6.9 mph - N/A   Clear
7:55 PM 40.5 °F 37.3 °F 30.9 °F 69% 30.14 in 10.0 mi South 4.6 mph - N/A   Clear
8:15 PM 40.1 °F 36.9 °F 31.1 °F 70% 30.14 in 10.0 mi SSE 4.6 mph - N/A   Clear
8:35 PM 40.1 °F 35.3 °F 30.9 °F 70% 30.13 in 10.0 mi SSE 6.9 mph - N/A   Clear
8:55 PM 41.0 °F 35.2 °F 30.2 °F 65% 30.12 in 10.0 mi SSE 9.2 mph - N/A   Clear
9:15 PM 41.0 °F 35.8 °F 30.2 °F 65% 30.12 in 10.0 mi South 8.1 mph - N/A   Scattered Clouds
9:35 PM 41.4 °F 36.8 °F 30.0 °F 64% 30.11 in 10.0 mi South 6.9 mph - N/A   Scattered Clouds
9:55 PM 42.1 °F 36.6 °F 29.3 °F 61% 30.11 in 10.0 mi South 9.2 mph - N/A   Mostly Cloudy
10:15 PM 42.8 °F 36.2 °F 29.1 °F 58% 30.10 in 10.0 mi South 12.7 mph 16.1 mph N/A   Scattered Clouds
10:35 PM 42.8 °F 37.0 °F 29.1 °F 58% 30.10 in 10.0 mi South 10.4 mph 17.3 mph N/A   Mostly Cloudy
10:55 PM 43.0 °F 36.8 °F 29.1 °F 58% 30.08 in 10.0 mi South 11.5 mph - N/A   Overcast
11:15 PM 43.0 °F 37.2 °F 28.9 °F 58% 30.07 in 10.0 mi South 10.4 mph - N/A   Overcast
11:35 PM 43.0 °F 36.4 °F 28.6 °F 57% 30.07 in 10.0 mi South 12.7 mph - N/A   Mostly Cloudy
11:55 PM 42.8 °F 37.0 °F 28.8 °F 58% 30.05 in 10.0 mi South 10.4 mph 16.1 mph N/A   Scattered Clouds